createdAt,value
2018-01-21T00:00:21.362Z,82.05
2018-01-21T00:01:23.156Z,82.05
2018-01-21T00:02:24.953Z,82.24
2018-01-21T00:03:26.829Z,82.43
2018-01-21T00:04:28.681Z,81.67
2018-01-21T00:05:30.561Z,82.14
2018-01-21T00:06:44.690Z,82.05
2018-01-21T00:07:46.555Z,82.14
2018-01-21T00:08:48.437Z,81.86
2018-01-21T00:09:50.315Z,82.43
2018-01-21T00:10:52.117Z,82.24
2018-01-21T00:11:53.935Z,82.24
2018-01-21T00:12:55.791Z,82.43
2018-01-21T00:13:57.656Z,83.09
2018-01-21T00:14:59.537Z,83.09
2018-01-21T00:16:13.718Z,82.76
2018-01-21T00:17:15.603Z,82.71
2018-01-21T00:18:17.488Z,82.90
2018-01-21T00:19:19.368Z,82.90
2018-01-21T00:20:21.157Z,83.09
2018-01-21T00:21:22.954Z,82.67
2018-01-21T00:22:24.810Z,82.67
2018-01-21T00:23:26.671Z,82.57
2018-01-21T00:24:28.557Z,82.86
2018-01-21T00:25:42.712Z,82.76
2018-01-21T00:26:44.599Z,82.76
2018-01-21T00:27:46.480Z,82.76
2018-01-21T00:28:48.363Z,82.76
2018-01-21T00:29:50.177Z,83.24
2018-01-21T00:30:51.977Z,82.67
2018-01-21T00:31:53.861Z,82.29
2018-01-21T00:32:55.745Z,82.10
2018-01-21T00:33:57.626Z,82.20
2018-01-21T00:35:11.754Z,82.29
2018-01-21T00:36:13.618Z,82.20
2018-01-21T00:37:15.502Z,82.01
2018-01-21T00:38:17.366Z,81.82
2018-01-21T00:39:19.181Z,81.67
2018-01-21T00:40:20.975Z,82.48
2018-01-21T00:41:22.842Z,82.20
2018-01-21T00:42:24.725Z,82.29
2018-01-21T00:43:26.606Z,82.29
2018-01-21T00:44:40.741Z,82.20
2018-01-21T00:45:42.626Z,82.20
2018-01-21T00:46:44.506Z,82.20
2018-01-21T00:47:46.370Z,82.20
2018-01-21T00:48:48.189Z,82.48
2018-01-21T00:49:50.006Z,82.29
2018-01-21T00:50:51.864Z,82.48
2018-01-21T00:51:53.730Z,82.76
2018-01-21T00:52:55.613Z,82.86
2018-01-21T00:54:09.742Z,83.33
2018-01-21T00:55:11.602Z,82.95
2018-01-21T00:56:13.461Z,83.24
2018-01-21T00:57:15.323Z,83.81
2018-01-21T00:58:17.119Z,83.52
2018-01-21T00:59:18.939Z,83.71
2018-01-21T01:00:20.823Z,83.52
2018-01-21T01:01:22.706Z,83.52
2018-01-21T01:02:24.587Z,83.33
2018-01-21T01:03:38.716Z,83.33
2018-01-21T01:04:40.579Z,83.71
2018-01-21T01:05:42.438Z,84.19
2018-01-21T01:06:44.321Z,83.71
2018-01-21T01:07:46.144Z,84.56
2018-01-21T01:08:47.964Z,84.28
2018-01-21T01:09:49.818Z,84.09
2018-01-21T01:10:51.673Z,84.37
2018-01-21T01:11:53.535Z,83.81
2018-01-21T01:13:07.690Z,84.09
2018-01-21T01:14:09.572Z,84.09
2018-01-21T01:15:11.435Z,83.71
2018-01-21T01:16:13.314Z,83.71
2018-01-21T01:17:15.117Z,83.24
2018-01-21T01:18:16.936Z,83.24
2018-01-21T01:19:18.794Z,83.43
2018-01-21T01:20:20.654Z,83.43
2018-01-21T01:21:22.534Z,83.71
2018-01-21T01:22:36.716Z,83.71
2018-01-21T01:23:38.572Z,83.62
2018-01-21T01:24:40.432Z,83.71
2018-01-21T01:25:42.314Z,83.43
2018-01-21T01:26:44.109Z,83.43
2018-01-21T01:27:45.906Z,83.24
2018-01-21T01:28:47.765Z,83.71
2018-01-21T01:29:49.625Z,83.90
2018-01-21T01:30:51.507Z,83.90
2018-01-21T01:32:05.633Z,83.52
2018-01-21T01:33:07.497Z,83.71
2018-01-21T01:34:09.354Z,83.81
2018-01-21T01:35:11.213Z,84.09
2018-01-21T01:36:13.016Z,84.19
2018-01-21T01:37:14.832Z,83.81
2018-01-21T01:38:16.688Z,83.81
2018-01-21T01:39:18.545Z,84.33
2018-01-21T01:40:20.409Z,84.23
2018-01-21T01:41:34.565Z,85.13
2018-01-21T01:42:36.451Z,85.28
2018-01-21T01:43:38.332Z,85.61
2018-01-21T01:44:40.211Z,86.08
2018-01-21T01:45:42.008Z,85.99
2018-01-21T01:46:43.801Z,86.18
2018-01-21T01:47:45.617Z,86.27
2018-01-21T01:48:47.414Z,86.18
2018-01-21T01:49:49.209Z,86.36
2018-01-21T01:51:03.367Z,85.99
2018-01-21T01:52:05.225Z,85.51
2018-01-21T01:53:07.086Z,85.32
2018-01-21T01:54:08.970Z,85.61
2018-01-21T01:55:10.765Z,85.04
2018-01-21T01:56:12.576Z,84.94
2018-01-21T01:57:14.447Z,84.75
2018-01-21T01:58:16.324Z,85.00
2018-01-21T01:59:18.211Z,84.28
2018-01-21T02:00:32.360Z,84.56
2018-01-21T02:01:34.225Z,84.14
2018-01-21T02:02:36.104Z,84.61
2018-01-21T02:03:37.967Z,84.52
2018-01-21T02:04:39.788Z,84.61
2018-01-21T02:05:41.608Z,84.52
2018-01-21T02:06:43.491Z,84.42
2018-01-21T02:07:45.380Z,84.33
2018-01-21T02:08:47.262Z,84.52
2018-01-21T02:10:01.395Z,83.95
2018-01-21T02:11:03.277Z,84.14
2018-01-21T02:12:05.157Z,84.52
2018-01-21T02:13:07.011Z,84.23
2018-01-21T02:14:08.810Z,83.86
2018-01-21T02:15:10.630Z,83.76
2018-01-21T02:16:12.489Z,84.05
2018-01-21T02:17:14.369Z,84.14
2018-01-21T02:18:16.251Z,83.67
2018-01-21T02:19:30.385Z,83.86
2018-01-21T02:20:32.267Z,83.58
2018-01-21T02:21:34.151Z,83.58
2018-01-21T02:22:36.028Z,83.48
2018-01-21T02:23:37.829Z,83.86
2018-01-21T02:24:39.650Z,84.14
2018-01-21T02:25:41.509Z,83.76
2018-01-21T02:26:43.371Z,83.67
2018-01-21T02:27:45.252Z,83.95
2018-01-21T02:28:59.374Z,84.05
2018-01-21T02:30:01.238Z,83.95
2018-01-21T02:31:03.097Z,83.95
2018-01-21T02:32:04.974Z,84.05
2018-01-21T02:33:06.775Z,83.86
2018-01-21T02:34:08.588Z,83.58
2018-01-21T02:35:10.449Z,83.67
2018-01-21T02:36:12.313Z,83.86
2018-01-21T02:37:14.190Z,83.39
2018-01-21T02:38:28.316Z,83.39
2018-01-21T02:39:30.183Z,83.20
2018-01-21T02:40:32.064Z,83.71
2018-01-21T02:41:33.947Z,84.14
2018-01-21T02:42:35.745Z,83.76
2018-01-21T02:43:37.557Z,84.05
2018-01-21T02:44:39.417Z,84.05
2018-01-21T02:45:41.273Z,83.52
2018-01-21T02:46:43.150Z,84.23
2018-01-21T02:47:57.281Z,83.71
2018-01-21T02:48:59.159Z,83.24
2018-01-21T02:50:01.019Z,83.29
2018-01-21T02:51:02.879Z,83.67
2018-01-21T02:52:04.673Z,83.76
2018-01-21T02:53:06.489Z,84.28
2018-01-21T02:54:08.364Z,84.75
2018-01-21T02:55:10.226Z,85.32
2018-01-21T02:56:12.082Z,85.13
2018-01-21T02:57:26.229Z,85.42
2018-01-21T02:58:28.106Z,84.85
2018-01-21T02:59:29.965Z,84.28
2018-01-21T03:00:31.826Z,83.62
2018-01-21T03:01:33.620Z,83.62
2018-01-21T03:02:35.436Z,83.24
2018-01-21T03:03:37.315Z,83.24
2018-01-21T03:04:39.176Z,82.67
2018-01-21T03:05:41.054Z,82.95
2018-01-21T03:06:55.181Z,82.39
2018-01-21T03:07:57.060Z,82.48
2018-01-21T03:08:58.916Z,82.01
2018-01-21T03:10:00.779Z,82.10
2018-01-21T03:11:02.596Z,82.01
2018-01-21T03:12:04.413Z,81.92
2018-01-21T03:13:06.292Z,81.63
2018-01-21T03:14:08.156Z,81.63
2018-01-21T03:15:10.033Z,81.72
2018-01-21T03:16:24.185Z,82.20
2018-01-21T03:17:26.058Z,81.82
2018-01-21T03:18:27.925Z,81.30
2018-01-21T03:19:29.803Z,81.87
2018-01-21T03:20:31.597Z,82.15
2018-01-21T03:21:33.408Z,81.87
2018-01-21T03:22:35.274Z,82.15
2018-01-21T03:23:37.158Z,82.82
2018-01-21T03:24:39.033Z,82.72
2018-01-21T03:25:53.164Z,82.91
2018-01-21T03:26:55.040Z,83.29
2018-01-21T03:27:56.899Z,83.01
2018-01-21T03:28:58.757Z,83.29
2018-01-21T03:30:00.553Z,82.76
2018-01-21T03:31:02.372Z,83.01
2018-01-21T03:32:04.250Z,82.86
2018-01-21T03:33:06.114Z,82.86
2018-01-21T03:34:07.984Z,82.48
2018-01-21T03:35:22.117Z,82.10
2018-01-21T03:36:23.993Z,82.20
2018-01-21T03:37:25.852Z,82.39
2018-01-21T03:38:27.706Z,82.01
2018-01-21T03:39:29.502Z,82.39
2018-01-21T03:40:31.299Z,81.92
2018-01-21T03:41:33.176Z,82.10
2018-01-21T03:42:35.037Z,82.01
2018-01-21T03:43:36.893Z,81.92
2018-01-21T03:44:51.019Z,81.63
2018-01-21T03:45:52.876Z,81.82
2018-01-21T03:46:54.732Z,82.29
2018-01-21T03:47:56.592Z,82.10
2018-01-21T03:48:58.408Z,82.29
2018-01-21T03:50:00.198Z,82.10
2018-01-21T03:51:02.081Z,82.01
2018-01-21T03:52:03.960Z,81.92
2018-01-21T03:53:05.815Z,82.01
2018-01-21T03:54:19.994Z,81.72
2018-01-21T03:55:21.845Z,81.72
2018-01-21T03:56:23.704Z,81.25
2018-01-21T03:57:25.560Z,82.48
2018-01-21T03:58:27.374Z,82.01
2018-01-21T03:59:29.168Z,82.01
2018-01-21T04:00:31.027Z,81.82
2018-01-21T04:01:32.910Z,82.01
2018-01-21T04:02:34.764Z,81.92
2018-01-21T04:03:48.910Z,81.92
2018-01-21T04:04:50.768Z,82.01
2018-01-21T04:05:52.631Z,82.01
2018-01-21T04:06:54.505Z,82.10
2018-01-21T04:07:56.303Z,82.01
2018-01-21T04:08:58.118Z,82.10
2018-01-21T04:09:59.978Z,81.82
2018-01-21T04:11:01.837Z,81.63
2018-01-21T04:12:03.712Z,82.39
2018-01-21T04:13:17.888Z,82.48
2018-01-21T04:14:19.748Z,82.48
2018-01-21T04:15:21.630Z,82.39
2018-01-21T04:16:23.507Z,82.10
2018-01-21T04:17:25.294Z,82.48
2018-01-21T04:18:27.089Z,82.95
2018-01-21T04:19:28.945Z,83.14
2018-01-21T04:20:30.811Z,82.95
2018-01-21T04:21:32.694Z,83.14
2018-01-21T04:22:46.840Z,83.14
2018-01-21T04:23:48.719Z,83.05
2018-01-21T04:24:50.575Z,82.76
2018-01-21T04:25:52.437Z,82.86
2018-01-21T04:26:54.229Z,82.86
2018-01-21T04:27:56.022Z,82.76
2018-01-21T04:28:57.883Z,82.86
2018-01-21T04:29:59.762Z,82.67
2018-01-21T04:31:01.617Z,82.86
2018-01-21T04:32:15.752Z,82.67
2018-01-21T04:33:17.633Z,83.05
2018-01-21T04:34:19.512Z,82.67
2018-01-21T04:35:21.371Z,82.76
2018-01-21T04:36:23.156Z,83.05
2018-01-21T04:37:24.956Z,82.48
2018-01-21T04:38:26.840Z,82.20
2018-01-21T04:39:28.699Z,82.10
2018-01-21T04:40:30.579Z,82.29
2018-01-21T04:41:44.780Z,82.67
2018-01-21T04:42:46.659Z,82.86
2018-01-21T04:43:48.535Z,83.14
2018-01-21T04:44:50.395Z,83.14
2018-01-21T04:45:52.211Z,83.52
2018-01-21T04:46:54.020Z,83.24
2018-01-21T04:47:55.882Z,83.14
2018-01-21T04:48:57.758Z,83.33
2018-01-21T04:49:59.619Z,83.71
2018-01-21T04:51:13.771Z,83.05
2018-01-21T04:52:15.672Z,82.95
2018-01-21T04:53:17.480Z,83.24
2018-01-21T04:54:19.333Z,82.67
2018-01-21T04:55:21.133Z,83.43
2018-01-21T04:56:22.941Z,83.24
2018-01-21T04:57:24.800Z,82.95
2018-01-21T04:58:26.664Z,83.43
2018-01-21T04:59:28.521Z,83.71
2018-01-21T05:00:42.652Z,84.66
2018-01-21T05:01:44.535Z,84.85
2018-01-21T05:02:46.410Z,85.13
2018-01-21T05:03:48.267Z,84.85
2018-01-21T05:04:50.064Z,84.47
2018-01-21T05:05:51.876Z,84.66
2018-01-21T05:06:53.735Z,84.37
2018-01-21T05:07:55.595Z,83.52
2018-01-21T05:08:57.470Z,83.14
2018-01-21T05:10:11.600Z,83.71
2018-01-21T05:11:13.462Z,83.71
2018-01-21T05:12:15.317Z,83.71
2018-01-21T05:13:17.175Z,83.14
2018-01-21T05:14:18.959Z,83.43
2018-01-21T05:15:20.754Z,82.86
2018-01-21T05:16:22.612Z,83.14
2018-01-21T05:17:24.467Z,82.67
2018-01-21T05:18:26.319Z,82.76
2018-01-21T05:19:40.450Z,82.95
2018-01-21T05:20:42.305Z,82.95
2018-01-21T05:21:44.165Z,82.86
2018-01-21T05:22:46.021Z,82.76
2018-01-21T05:23:47.811Z,82.67
2018-01-21T05:24:49.626Z,82.76
2018-01-21T05:25:51.502Z,82.76
2018-01-21T05:26:53.364Z,82.67
2018-01-21T05:27:55.215Z,82.67
2018-01-21T05:29:09.345Z,82.57
2018-01-21T05:30:11.228Z,82.95
2018-01-21T05:31:13.080Z,82.86
2018-01-21T05:32:14.941Z,82.63
2018-01-21T05:33:16.737Z,82.86
2018-01-21T05:34:18.531Z,82.76
2018-01-21T05:35:20.411Z,83.14
2018-01-21T05:36:22.272Z,82.63
2018-01-21T05:37:24.127Z,83.10
2018-01-21T05:38:38.260Z,82.95
2018-01-21T05:39:40.137Z,82.82
2018-01-21T05:40:41.999Z,82.72
2018-01-21T05:41:43.853Z,82.72
2018-01-21T05:42:45.651Z,82.63
2018-01-21T05:43:47.464Z,82.72
2018-01-21T05:44:49.319Z,82.44
2018-01-21T05:45:51.182Z,82.34
2018-01-21T05:46:53.062Z,82.25
2018-01-21T05:48:07.206Z,82.15
2018-01-21T05:49:09.064Z,82.82
2018-01-21T05:50:10.924Z,82.82
2018-01-21T05:51:12.777Z,82.82
2018-01-21T05:52:14.572Z,82.63
2018-01-21T05:53:16.389Z,82.63
2018-01-21T05:54:18.271Z,83.10
2018-01-21T05:55:20.154Z,82.82
2018-01-21T05:56:22.032Z,82.82
2018-01-21T05:57:36.155Z,83.58
2018-01-21T05:58:38.018Z,83.67
2018-01-21T05:59:39.901Z,83.86
2018-01-21T06:00:41.757Z,83.76
2018-01-21T06:01:43.551Z,83.95
2018-01-21T06:02:45.357Z,83.58
2018-01-21T06:03:47.233Z,83.76
2018-01-21T06:04:49.100Z,83.20
2018-01-21T06:05:50.976Z,83.67
2018-01-21T06:07:05.103Z,83.67
2018-01-21T06:08:06.964Z,83.01
2018-01-21T06:09:08.819Z,83.20
2018-01-21T06:10:10.677Z,82.82
2018-01-21T06:11:12.491Z,83.01
2018-01-21T06:12:14.308Z,82.53
2018-01-21T06:13:16.185Z,82.91
2018-01-21T06:14:18.045Z,82.82
2018-01-21T06:15:19.902Z,82.72
2018-01-21T06:16:34.028Z,83.01
2018-01-21T06:17:35.910Z,82.25
2018-01-21T06:18:37.790Z,82.25
2018-01-21T06:19:39.647Z,82.15
2018-01-21T06:20:41.432Z,82.15
2018-01-21T06:21:43.230Z,82.25
2018-01-21T06:22:45.093Z,82.34
2018-01-21T06:23:46.972Z,82.44
2018-01-21T06:24:48.851Z,82.44
2018-01-21T06:26:03.002Z,82.34
2018-01-21T06:27:04.880Z,82.53
2018-01-21T06:28:06.736Z,82.34
2018-01-21T06:29:08.597Z,82.15
2018-01-21T06:30:10.394Z,82.34
2018-01-21T06:31:12.210Z,82.15
2018-01-21T06:32:14.069Z,82.06
2018-01-21T06:33:15.951Z,82.25
2018-01-21T06:34:17.807Z,82.15
2018-01-21T06:35:32.005Z,82.25
2018-01-21T06:36:33.888Z,82.91
2018-01-21T06:37:35.748Z,82.91
2018-01-21T06:38:37.628Z,82.91
2018-01-21T06:39:39.448Z,83.58
2018-01-21T06:40:41.265Z,83.86
2018-01-21T06:41:43.125Z,83.95
2018-01-21T06:42:44.982Z,84.14
2018-01-21T06:43:46.838Z,83.95
2018-01-21T06:45:01.015Z,83.76
2018-01-21T06:46:02.901Z,84.23
2018-01-21T06:47:04.782Z,83.95
2018-01-21T06:48:06.663Z,84.42
2018-01-21T06:49:08.478Z,84.33
2018-01-21T06:50:10.276Z,83.48
2018-01-21T06:51:12.160Z,84.14
2018-01-21T06:52:14.042Z,83.67
2018-01-21T06:53:15.898Z,83.48
2018-01-21T06:54:30.049Z,83.71
2018-01-21T06:55:31.914Z,83.76
2018-01-21T06:56:33.799Z,84.00
2018-01-21T06:57:35.682Z,83.90
2018-01-21T06:58:37.503Z,83.86
2018-01-21T06:59:39.323Z,83.67
2018-01-21T07:00:41.183Z,83.76
2018-01-21T07:01:43.043Z,84.23
2018-01-21T07:02:44.898Z,84.56
2018-01-21T07:03:59.032Z,83.62
2018-01-21T07:05:00.888Z,83.33
2018-01-21T07:06:02.750Z,83.52
2018-01-21T07:07:04.633Z,83.43
2018-01-21T07:08:06.433Z,83.52
2018-01-21T07:09:08.251Z,84.09
2018-01-21T07:10:10.135Z,83.71
2018-01-21T07:11:12.007Z,83.24
2018-01-21T07:12:13.881Z,83.52
2018-01-21T07:13:28.010Z,83.05
2018-01-21T07:14:29.890Z,82.67
2018-01-21T07:15:31.755Z,82.67
2018-01-21T07:16:33.619Z,82.76
2018-01-21T07:17:35.437Z,82.20
2018-01-21T07:18:37.252Z,82.10
2018-01-21T07:19:39.136Z,82.48
2018-01-21T07:20:41.008Z,81.92
2018-01-21T07:21:42.889Z,82.29
2018-01-21T07:22:57.022Z,81.92
2018-01-21T07:23:58.905Z,82.20
2018-01-21T07:25:00.769Z,81.92
2018-01-21T07:26:02.633Z,81.82
2018-01-21T07:27:04.451Z,81.82
2018-01-21T07:28:06.268Z,81.53
2018-01-21T07:29:08.133Z,81.63
2018-01-21T07:30:10.025Z,81.06
2018-01-21T07:31:11.922Z,81.25
2018-01-21T07:32:26.058Z,80.68
2018-01-21T07:33:27.926Z,81.06
2018-01-21T07:34:29.808Z,80.87
2018-01-21T07:35:31.674Z,80.96
2018-01-21T07:36:33.490Z,80.68
2018-01-21T07:37:35.294Z,80.30
2018-01-21T07:38:37.178Z,80.21
2018-01-21T07:39:39.040Z,80.11
2018-01-21T07:40:40.902Z,80.02
2018-01-21T07:41:55.056Z,79.83
2018-01-21T07:42:56.921Z,79.93
2018-01-21T07:43:58.787Z,79.93
2018-01-21T07:45:00.669Z,80.02
2018-01-21T07:46:02.464Z,79.74
2018-01-21T07:47:04.260Z,79.74
2018-01-21T07:48:06.124Z,79.93
2018-01-21T07:49:08.011Z,80.11
2018-01-21T07:50:09.895Z,79.45
2018-01-21T07:51:24.022Z,79.83
2018-01-21T07:52:25.889Z,79.64
2018-01-21T07:53:27.771Z,79.64
2018-01-21T07:54:29.637Z,79.17
2018-01-21T07:55:31.436Z,79.93
2018-01-21T07:56:33.309Z,80.11
2018-01-21T07:57:35.172Z,79.83
2018-01-21T07:58:37.033Z,80.02
2018-01-21T07:59:38.904Z,79.93
2018-01-21T08:00:53.063Z,79.26
2018-01-21T08:01:54.972Z,79.55
2018-01-21T08:02:56.836Z,79.74
2018-01-21T08:03:58.702Z,79.58
2018-01-21T08:05:00.498Z,79.64
2018-01-21T08:06:02.303Z,79.83
2018-01-21T08:07:04.192Z,79.64
2018-01-21T08:08:06.079Z,79.74
2018-01-21T08:09:07.942Z,79.55
2018-01-21T08:10:22.098Z,79.64
2018-01-21T08:11:23.982Z,79.30
2018-01-21T08:12:25.901Z,79.58
2018-01-21T08:13:27.780Z,79.11
2018-01-21T08:14:29.636Z,78.83
2018-01-21T08:15:31.422Z,79.02
2018-01-21T08:16:33.311Z,79.21
2018-01-21T08:17:35.232Z,78.73
2018-01-21T08:18:37.064Z,78.54
2018-01-21T08:19:51.219Z,79.30
2018-01-21T08:20:53.104Z,78.45
2018-01-21T08:21:54.974Z,78.16
2018-01-21T08:22:56.856Z,77.88
2018-01-21T08:23:58.662Z,77.88
2018-01-21T08:25:00.480Z,77.69
2018-01-21T08:26:02.352Z,77.40
2018-01-21T08:27:04.210Z,77.31
2018-01-21T08:28:06.074Z,77.31
2018-01-21T08:29:20.226Z,77.31
2018-01-21T08:30:22.093Z,77.40
2018-01-21T08:31:23.956Z,77.22
2018-01-21T08:32:25.843Z,77.22
2018-01-21T08:33:27.743Z,77.50
2018-01-21T08:34:29.562Z,77.59
2018-01-21T08:35:31.433Z,77.69
2018-01-21T08:36:33.301Z,77.97
2018-01-21T08:37:35.231Z,77.88
2018-01-21T08:38:49.466Z,78.45
2018-01-21T08:39:51.336Z,78.45
2018-01-21T08:40:53.395Z,78.45
2018-01-21T08:41:55.266Z,78.35
2018-01-21T08:42:57.069Z,78.45
2018-01-21T08:43:58.889Z,78.54
2018-01-21T08:45:00.755Z,78.26
2018-01-21T08:46:02.643Z,78.54
2018-01-21T08:47:04.507Z,78.45
2018-01-21T08:48:18.689Z,77.97
2018-01-21T08:49:20.531Z,77.88
2018-01-21T08:50:22.419Z,77.97
2018-01-21T08:51:24.297Z,78.07
2018-01-21T08:52:26.120Z,78.16
2018-01-21T08:53:27.923Z,78.26
2018-01-21T08:54:29.782Z,78.35
2018-01-21T08:55:31.660Z,78.45
2018-01-21T08:56:33.557Z,78.16
2018-01-21T08:57:47.716Z,78.07
2018-01-21T08:58:49.574Z,77.88
2018-01-21T08:59:51.433Z,77.78
2018-01-21T09:00:53.297Z,77.40
2018-01-21T09:01:55.097Z,77.31
2018-01-21T09:02:56.917Z,77.59
2018-01-21T09:03:58.832Z,77.03
2018-01-21T09:05:00.717Z,77.16
2018-01-21T09:06:02.604Z,77.16
2018-01-21T09:07:16.809Z,77.06
2018-01-21T09:08:18.664Z,76.97
2018-01-21T09:09:20.559Z,76.97
2018-01-21T09:10:22.439Z,76.17
2018-01-21T09:11:24.238Z,75.98
2018-01-21T09:12:26.100Z,76.55
2018-01-21T09:13:27.989Z,75.79
2018-01-21T09:14:29.885Z,76.55
2018-01-21T09:15:31.767Z,76.27
2018-01-21T09:16:45.965Z,76.46
2018-01-21T09:17:47.876Z,76.50
2018-01-21T09:18:49.759Z,76.17
2018-01-21T09:19:51.732Z,76.74
2018-01-21T09:20:53.583Z,77.03
2018-01-21T09:21:55.406Z,77.31
2018-01-21T09:22:57.295Z,77.69
2018-01-21T09:23:59.188Z,78.35
2018-01-21T09:25:01.332Z,78.35
2018-01-21T09:26:15.489Z,78.54
2018-01-21T09:27:17.405Z,78.26
2018-01-21T09:28:19.339Z,78.07
2018-01-21T09:29:21.229Z,77.97
2018-01-21T09:30:23.054Z,77.97
2018-01-21T09:31:24.859Z,77.88
2018-01-21T09:32:26.745Z,77.22
2018-01-21T09:33:28.619Z,77.12
2018-01-21T09:34:30.498Z,77.78
2018-01-21T09:35:44.654Z,77.97
2018-01-21T09:36:46.517Z,77.88
2018-01-21T09:37:48.382Z,77.78
2018-01-21T09:38:50.267Z,77.97
2018-01-21T09:39:52.072Z,77.50
2018-01-21T09:40:53.900Z,77.97
2018-01-21T09:41:55.789Z,77.97
2018-01-21T09:42:57.648Z,78.07
2018-01-21T09:43:59.512Z,78.45
2018-01-21T09:45:13.720Z,78.35
2018-01-21T09:46:15.612Z,78.73
2018-01-21T09:47:17.496Z,78.79
2018-01-21T09:48:19.439Z,79.07
2018-01-21T09:49:21.245Z,79.83
2018-01-21T09:50:23.043Z,79.55
2018-01-21T09:51:24.903Z,79.77
2018-01-21T09:52:26.769Z,79.58
2018-01-21T09:53:28.654Z,79.49
2018-01-21T09:54:42.809Z,79.39
2018-01-21T09:55:44.677Z,78.73
2018-01-21T09:56:46.566Z,78.26
2018-01-21T09:57:48.456Z,78.45
2018-01-21T09:58:50.272Z,77.69
2018-01-21T09:59:52.089Z,77.54
2018-01-21T10:00:53.996Z,77.64
2018-01-21T10:01:55.862Z,77.16
2018-01-21T10:02:57.728Z,76.87
2018-01-21T10:04:11.867Z,75.74
2018-01-21T10:05:13.754Z,75.55
2018-01-21T10:06:15.637Z,75.55
2018-01-21T10:07:17.534Z,75.93
2018-01-21T10:08:19.373Z,75.84
2018-01-21T10:09:21.191Z,75.84
2018-01-21T10:10:23.113Z,76.12
2018-01-21T10:11:25.028Z,75.84
2018-01-21T10:12:26.919Z,75.59
2018-01-21T10:13:41.100Z,75.02
2018-01-21T10:14:42.956Z,75.11
2018-01-21T10:15:44.925Z,74.54
2018-01-21T10:16:46.759Z,74.26
2018-01-21T10:17:48.563Z,74.07
2018-01-21T10:18:50.388Z,73.88
2018-01-21T10:19:52.262Z,73.22
2018-01-21T10:20:54.156Z,73.41
2018-01-21T10:21:56.044Z,73.50
2018-01-21T10:23:10.180Z,74.07
2018-01-21T10:24:12.069Z,74.07
2018-01-21T10:25:13.939Z,74.41
2018-01-21T10:26:15.824Z,74.88
2018-01-21T10:27:17.649Z,75.07
2018-01-21T10:28:19.473Z,74.92
2018-01-21T10:29:21.375Z,74.92
2018-01-21T10:30:23.243Z,75.21
2018-01-21T10:31:25.125Z,74.92
2018-01-21T10:32:39.255Z,74.83
2018-01-21T10:33:41.119Z,74.64
2018-01-21T10:34:43.008Z,74.83
2018-01-21T10:35:44.918Z,74.64
2018-01-21T10:36:46.742Z,73.88
2018-01-21T10:37:48.561Z,73.92
2018-01-21T10:38:50.447Z,73.72
2018-01-21T10:39:52.346Z,72.97
2018-01-21T10:40:54.170Z,72.30
2018-01-21T10:42:08.462Z,71.92
2018-01-21T10:43:10.383Z,71.92
2018-01-21T10:44:12.269Z,71.73
2018-01-21T10:45:14.139Z,71.67
2018-01-21T10:46:15.961Z,71.30
2018-01-21T10:47:17.785Z,70.44
2018-01-21T10:48:19.675Z,70.15
2018-01-21T10:49:21.539Z,69.87
2018-01-21T10:50:23.428Z,69.34
2018-01-21T10:51:37.648Z,69.15
2018-01-21T10:52:39.525Z,68.86
2018-01-21T10:53:41.395Z,69.24
2018-01-21T10:54:43.262Z,68.96
2018-01-21T10:55:45.097Z,68.96
2018-01-21T10:56:46.933Z,69.05
2018-01-21T10:57:48.825Z,68.54
2018-01-21T10:58:50.685Z,69.21
2018-01-21T10:59:52.549Z,69.59
2018-01-21T11:01:06.752Z,70.21
2018-01-21T11:02:08.622Z,70.88
2018-01-21T11:03:10.512Z,71.26
2018-01-21T11:04:12.398Z,71.60
2018-01-21T11:05:14.198Z,71.98
2018-01-21T11:06:16.000Z,72.45
2018-01-21T11:07:17.869Z,73.03
2018-01-21T11:08:19.784Z,73.50
2018-01-21T11:09:21.683Z,73.69
2018-01-21T11:10:35.820Z,74.16
2018-01-21T11:11:37.682Z,74.79
2018-01-21T11:12:39.547Z,74.98
2018-01-21T11:13:41.417Z,75.17
2018-01-21T11:14:43.215Z,75.84
2018-01-21T11:15:45.038Z,75.93
2018-01-21T11:16:46.928Z,75.93
2018-01-21T11:17:48.815Z,76.03
2018-01-21T11:18:50.675Z,76.68
2018-01-21T11:20:04.816Z,76.59
2018-01-21T11:21:06.681Z,76.50
2018-01-21T11:22:08.550Z,76.97
2018-01-21T11:23:10.408Z,77.25
2018-01-21T11:24:12.240Z,77.54
2018-01-21T11:25:14.076Z,77.45
2018-01-21T11:26:15.947Z,77.92
2018-01-21T11:27:17.841Z,78.30
2018-01-21T11:28:19.710Z,77.78
2018-01-21T11:29:33.864Z,78.54
2018-01-21T11:30:35.729Z,78.54
2018-01-21T11:31:37.614Z,78.73
2018-01-21T11:32:39.485Z,78.45
2018-01-21T11:33:41.286Z,78.64
2018-01-21T11:34:43.114Z,78.83
2018-01-21T11:35:44.998Z,79.02
2018-01-21T11:36:46.863Z,79.30
2018-01-21T11:37:48.745Z,79.39
2018-01-21T11:39:02.931Z,78.83
2018-01-21T11:40:04.827Z,79.11
2018-01-21T11:41:06.691Z,79.39
2018-01-21T11:42:08.577Z,79.58
2018-01-21T11:43:10.399Z,78.92
2018-01-21T11:44:12.271Z,79.21
2018-01-21T11:45:14.081Z,79.11
2018-01-21T11:46:15.945Z,78.73
2018-01-21T11:47:17.813Z,78.64
2018-01-21T11:48:31.997Z,78.83
2018-01-21T11:49:33.863Z,78.58
2018-01-21T11:50:35.752Z,78.77
2018-01-21T11:51:37.641Z,78.20
2018-01-21T11:52:39.465Z,79.21
2018-01-21T11:53:41.317Z,78.54
2018-01-21T11:54:43.198Z,78.92
2018-01-21T11:55:45.062Z,79.02
2018-01-21T11:56:46.964Z,79.30
2018-01-21T11:58:01.059Z,79.39
2018-01-21T11:59:02.923Z,79.39
2018-01-21T12:00:04.799Z,79.44
2018-01-21T12:01:06.656Z,79.06
2018-01-21T12:02:08.464Z,79.44
2018-01-21T12:03:10.262Z,79.44
2018-01-21T12:04:12.156Z,79.44
2018-01-21T12:05:14.031Z,79.11
2018-01-21T12:06:15.922Z,79.68
2018-01-21T12:07:30.073Z,80.06
2018-01-21T12:08:31.941Z,80.82
2018-01-21T12:09:33.849Z,81.20
2018-01-21T12:10:35.711Z,82.33
2018-01-21T12:11:37.527Z,82.14
2018-01-21T12:12:39.334Z,82.05
2018-01-21T12:13:41.218Z,82.05
2018-01-21T12:14:43.043Z,81.76
2018-01-21T12:15:44.847Z,82.05
2018-01-21T12:16:59.014Z,82.81
2018-01-21T12:18:00.966Z,81.86
2018-01-21T12:19:02.859Z,81.95
2018-01-21T12:20:04.719Z,82.24
2018-01-21T12:21:06.531Z,82.43
2018-01-21T12:22:08.333Z,82.14
2018-01-21T12:23:10.223Z,82.05
2018-01-21T12:24:12.087Z,82.05
2018-01-21T12:25:13.973Z,82.14
2018-01-21T12:26:28.107Z,83.00
2018-01-21T12:27:29.983Z,82.43
2018-01-21T12:28:31.876Z,82.43
2018-01-21T12:29:33.760Z,81.86
2018-01-21T12:30:35.582Z,82.33
2018-01-21T12:31:37.381Z,82.33
2018-01-21T12:32:39.271Z,81.86
2018-01-21T12:33:41.140Z,82.43
2018-01-21T12:34:43.032Z,82.90
2018-01-21T12:35:57.188Z,83.14
2018-01-21T12:36:59.063Z,83.52
2018-01-21T12:38:00.951Z,83.71
2018-01-21T12:39:02.838Z,84.13
2018-01-21T12:40:04.648Z,83.28
2018-01-21T12:41:06.465Z,83.52
2018-01-21T12:42:08.328Z,83.62
2018-01-21T12:43:10.196Z,83.81
2018-01-21T12:44:12.063Z,84.37
2018-01-21T12:45:26.218Z,83.90
2018-01-21T12:46:28.119Z,83.75
2018-01-21T12:47:29.994Z,84.04
2018-01-21T12:48:31.883Z,83.56
2018-01-21T12:49:33.676Z,83.94
2018-01-21T12:50:35.481Z,83.85
2018-01-21T12:51:37.348Z,83.75
2018-01-21T12:52:39.233Z,83.75
2018-01-21T12:53:41.117Z,83.47
2018-01-21T12:54:55.280Z,83.18
2018-01-21T12:55:57.176Z,82.62
2018-01-21T12:56:59.071Z,82.81
2018-01-21T12:58:00.958Z,83.66
2018-01-21T12:59:02.782Z,83.37
2018-01-21T13:00:04.581Z,83.94
2018-01-21T13:01:06.469Z,83.71
2018-01-21T13:02:08.340Z,84.47
2018-01-21T13:03:10.223Z,84.56
2018-01-21T13:04:24.373Z,84.09
2018-01-21T13:05:26.249Z,84.56
2018-01-21T13:06:28.109Z,83.81
2018-01-21T13:07:29.972Z,83.71
2018-01-21T13:08:31.775Z,83.71
2018-01-21T13:09:33.571Z,83.62
2018-01-21T13:10:35.434Z,83.85
2018-01-21T13:11:37.301Z,83.37
2018-01-21T13:12:39.181Z,82.81
2018-01-21T13:13:53.319Z,82.90
2018-01-21T13:14:55.194Z,82.43
2018-01-21T13:15:57.051Z,82.62
2018-01-21T13:16:58.917Z,82.43
2018-01-21T13:18:00.721Z,82.43
2018-01-21T13:19:02.542Z,82.43
2018-01-21T13:20:04.435Z,82.52
2018-01-21T13:21:06.322Z,82.52
2018-01-21T13:22:08.207Z,81.86
2018-01-21T13:23:22.365Z,81.67
2018-01-21T13:24:24.239Z,81.20
2018-01-21T13:25:26.152Z,80.82
2018-01-21T13:26:28.032Z,80.63
2018-01-21T13:27:29.896Z,80.25
2018-01-21T13:28:31.656Z,80.15
2018-01-21T13:29:33.596Z,79.96
2018-01-21T13:30:35.546Z,80.44
2018-01-21T13:31:37.404Z,80.82
2018-01-21T13:32:51.547Z,80.82
2018-01-21T13:33:53.439Z,81.48